Temp: 13.5°C   Hum: 84%
  Wind: 4.0mph   Dir: WNW (282°)
  Rain: 0.0mm Rate: 0.0mm/hr
  Pressure: 1007.6mb

Historic data

Bath Spa Weather Station Historical Data
Daily Summary for December 01, 2021 Units:  English    Metric   Both
Daily Weekly Monthly Yearly Custom
  High: Low: Average:
Temperature: 51.1 °F 35.2 °F 45.1 °F
Dew Point: 49.6 °F 31.1 °F 41.8 °F
Humidity: 92% 80% 85%
Wind Speed: 14.2mph 0mph 6.3mph
Wind Gust: 24mph - -
Wind- - West
Pressure: 29.86 in 29.47 in -
Precipitation: 0.17 in    
Historical Graphs
 
 
Tabular Data for December 01, 2021
Time Temperature Dew Point Pressure Wind Wind Speed Wind Gust Humidity Rainfall Rate (Hourly) solar
00:09 51.1 °F 49.6 °F 29.51 in West 10.3 mph 24 mph 92% 0.00 in 0 W/m2
00:14 51.1 °F 49.6 °F 29.51 in West 11.1 mph 19 mph 91.6% 0.00 in 0 W/m2
00:19 51.1 °F 49.5 °F 29.51 in WNW 9.2 mph 22 mph 91% 0.00 in 0 W/m2
00:24 51.1 °F 49.5 °F 29.51 in WNW 9 mph 20 mph 91% 0.01 in 0 W/m2
00:29 51 °F 49 °F 29.51 in WNW 11 mph 24 mph 90% 0.01 in 0 W/m2
00:34 50.9 °F 48.9 °F 29.50 in West 7 mph 19 mph 90% 0.01 in 0 W/m2
00:39 50.8 °F 48.6 °F 29.50 in WNW 8.2 mph 18 mph 89% 0.01 in 0 W/m2
00:44 50.7 °F 48.6 °F 29.50 in West 8.2 mph 17 mph 89% 0.01 in 0 W/m2
00:49 50.7 °F 48.6 °F 29.50 in WNW 9.7 mph 18 mph 89% 0.01 in 0 W/m2
00:54 50.7 °F 48.6 °F 29.50 in WNW 9 mph 15 mph 89% 0.01 in 0 W/m2
00:59 50.6 °F 48.5 °F 29.50 in WNW 7.8 mph 23 mph 89% 0.01 in 0 W/m2
01:04 50.7 °F 48.6 °F 29.49 in WNW 14.2 mph 21 mph 89% 0.01 in 0 W/m2
01:09 50.7 °F 48.6 °F 29.49 in WNW 8 mph 18 mph 89% 0.01 in 0 W/m2
01:14 50.7 °F 48.6 °F 29.49 in WNW 10 mph 17 mph 89% 0.01 in 0 W/m2
01:19 50.6 °F 48.5 °F 29.48 in WNW 11.8 mph 16 mph 89% 0.01 in 0 W/m2
01:24 50.6 °F 48.5 °F 29.48 in West 10.2 mph 19 mph 89% 0.00 in 0 W/m2
01:29 50.7 °F 48.6 °F 29.48 in WNW 8.2 mph 20 mph 89% 0.00 in 0 W/m2
01:34 50.7 °F 48.6 °F 29.48 in West 11 mph 21 mph 89.4% 0.00 in 0 W/m2
01:39 50.7 °F 48.7 °F 29.48 in WNW 9 mph 16 mph 89.8% 0.00 in 0 W/m2
01:44 50.6 °F 48.6 °F 29.48 in WNW 6.1 mph 17 mph 90% 0.00 in 0 W/m2
01:49 50.5 °F 48.6 °F 29.47 in WNW 9.2 mph 16 mph 90% 0.00 in 0 W/m2
01:54 50.4 °F 48.4 °F 29.47 in WNW 9.6 mph 16 mph 90% 0.00 in 0 W/m2
01:59 50.4 °F 48.4 °F 29.47 in WNW 9.4 mph 16 mph 90% 0.00 in 0 W/m2
02:04 50.3 °F 48.3 °F 29.47 in WNW 8.6 mph 13 mph 90% 0.00 in 0 W/m2
02:09 50.2 °F 48.2 °F 29.47 in WNW 8 mph 13 mph 90% 0.00 in 0 W/m2
02:14 50.2 °F 48.2 °F 29.47 in West 7.4 mph 14 mph 90% 0.00 in 0 W/m2
02:19 50.2 °F 48.2 °F 29.47 in WNW 7.3 mph 16 mph 90% 0.00 in 0 W/m2
02:22 50.2 °F 48.2 °F 29.47 in WNW 7.7 mph 13 mph 90% 0.00 in 0 W/m2
02:29 50.2 °F 48.2 °F 29.47 in WNW 8.4 mph 16 mph 90% 0.00 in 0 W/m2
02:34 50.2 °F 48.2 °F 29.47 in WNW 8.3 mph 18 mph 90% 0.00 in 0 W/m2
02:39 50.2 °F 48 °F 29.47 in WNW 10.2 mph 23 mph 89.2% 0.00 in 0 W/m2
02:44 50.2 °F 48 °F 29.47 in NW 6 mph 15 mph 89% 0.00 in 0 W/m2
02:49 50.2 °F 48 °F 29.47 in WNW 12 mph 19 mph 89% 0.00 in 0 W/m2
02:54 50 °F 47.8 °F 29.47 in NW 7.2 mph 14 mph 89% 0.00 in 0 W/m2
02:59 49.8 °F 47.7 °F 29.47 in WNW 9.1 mph 13 mph 89% 0.00 in 0 W/m2
03:04 49.8 °F 47.7 °F 29.48 in WNW 5.9 mph 10 mph 89% 0.00 in 0 W/m2
03:09 49.7 °F 47.6 °F 29.48 in WNW 9 mph 15 mph 89% 0.00 in 0 W/m2
03:14 49.6 °F 47.5 °F 29.47 in WNW 6.6 mph 12 mph 89% 0.00 in 0 W/m2
03:19 49.6 °F 47.5 °F 29.48 in NW 7 mph 12 mph 89% 0.00 in 0 W/m2
03:24 49.5 °F 47.4 °F 29.48 in WNW 6 mph 13 mph 89% 0.00 in 0 W/m2
03:29 49.5 °F 47 °F 29.48 in WNW 5.8 mph 11 mph 88.2% 0.00 in 0 W/m2
03:34 49.5 °F 46.9 °F 29.48 in WNW 9.5 mph 12 mph 88% 0.00 in 0 W/m2
03:39 49.5 °F 46.6 °F 29.48 in NW 7.8 mph 13 mph 87% 0.00 in 0 W/m2
03:44 49.5 °F 46.6 °F 29.49 in NW 9 mph 24 mph 86.6% 0.00 in 0 W/m2
03:48 49.7 °F 46.1 °F 29.48 in NW 8.6 mph 20 mph 84.5% 0.00 in 0 W/m2
03:54 49.7 °F 45.6 °F 29.48 in WNW 7 mph 16 mph 83% 0.00 in 0 W/m2
03:59 49.6 °F 45.4 °F 29.48 in NW 6.4 mph 16 mph 82.6% 0.00 in 0 W/m2
04:04 49.5 °F 45.1 °F 29.49 in NW 7.2 mph 15 mph 82% 0.00 in 0 W/m2
04:09 49.4 °F 45 °F 29.49 in WNW 7 mph 10 mph 82% 0.00 in 0 W/m2
04:14 49.3 °F 45 °F 29.49 in WNW 6.8 mph 14 mph 82.4% 0.00 in 0 W/m2
04:19 49.1 °F 44.8 °F 29.49 in NW 5 mph 15 mph 82% 0.00 in 0 W/m2
04:24 48.9 °F 44.6 °F 29.49 in NW 6.2 mph 15 mph 82% 0.00 in 0 W/m2
04:29 48.9 °F 44.6 °F 29.49 in NW 6.6 mph 15 mph 82% 0.00 in 0 W/m2
04:34 48.7 °F 44.4 °F 29.49 in NW 5.9 mph 11 mph 82% 0.00 in 0 W/m2
04:39 48.7 °F 44.6 °F 29.50 in NW 4.4 mph 9 mph 82.4% 0.00 in 0 W/m2
04:44 48.7 °F 44.6 °F 29.50 in WNW 3.6 mph 8 mph 82.8% 0.00 in 0 W/m2
04:49 48.6 °F 44.6 °F 29.50 in WNW 8.2 mph 16 mph 83.2% 0.00 in 0 W/m2
04:54 48.4 °F 44.6 °F 29.50 in NW 5.6 mph 11 mph 84% 0.00 in 0 W/m2
04:59 48.4 °F 44.6 °F 29.50 in WNW 5.5 mph 11 mph 84% 0.00 in 0 W/m2
05:04 48.1 °F 44.1 °F 29.50 in WNW 7.2 mph 13 mph 83% 0.00 in 0 W/m2
05:09 48 °F 44.1 °F 29.50 in WNW 5.8 mph 12 mph 83% 0.00 in 0 W/m2
05:14 48 °F 44.1 °F 29.51 in WNW 8.4 mph 12 mph 83% 0.00 in 0 W/m2
05:18 48 °F 44.1 °F 29.51 in NW 5.2 mph 9 mph 83% 0.00 in 0 W/m2
05:23 48 °F 44.1 °F 29.51 in WNW 6.7 mph 13 mph 83% 0.00 in 0 W/m2
05:29 48 °F 44.1 °F 29.51 in WNW 9.2 mph 19 mph 83% 0.00 in 0 W/m2
05:34 48 °F 44.1 °F 29.52 in WNW 8 mph 15 mph 83% 0.00 in 0 W/m2
05:39 47.8 °F 43.9 °F 29.52 in WNW 8.2 mph 15 mph 83% 0.00 in 0 W/m2
05:44 47.7 °F 43.8 °F 29.52 in WNW 7.8 mph 17 mph 83% 0.00 in 0 W/m2
05:49 47.7 °F 43.9 °F 29.52 in WNW 7.6 mph 17 mph 84% 0.00 in 0 W/m2
05:54 47.5 °F 43.7 °F 29.52 in WNW 7.2 mph 13 mph 83.8% 0.00 in 0 W/m2
05:59 47.5 °F 43.7 °F 29.52 in WNW 8 mph 14 mph 83.8% 0.00 in 0 W/m2
06:04 47.5 °F 43.7 °F 29.52 in WNW 10.5 mph 14 mph 84% 0.00 in 0 W/m2
06:09 47.3 °F 43.6 °F 29.52 in WNW 6.6 mph 13 mph 84.2% 0.00 in 0 W/m2
06:14 47 °F 43.5 °F 29.52 in WNW 5.3 mph 12 mph 85% 0.01 in 0 W/m2
06:19 46.7 °F 43.6 °F 29.53 in WNW 7.8 mph 13 mph 86% 0.02 in 0 W/m2
06:24 46.3 °F 43.5 °F 29.53 in WNW 6.6 mph 14 mph 86.8% 0.02 in 0 W/m2
06:29 46 °F 43.4 °F 29.53 in WNW 5.7 mph 11 mph 87.4% 0.04 in 0 W/m2
06:34 45.9 °F 43.3 °F 29.53 in WNW 6.5 mph 10 mph 88% 0.05 in 0 W/m2
06:39 45.7 °F 43.5 °F 29.53 in WNW 5.3 mph 10 mph 88.8% 0.06 in 0 W/m2
06:44 45.6 °F 43.4 °F 29.53 in WNW 5.3 mph 11 mph 89% 0.08 in 0 W/m2
06:49 45.3 °F 43.4 °F 29.53 in WNW 5.7 mph 9 mph 89.6% 0.09 in 0 W/m2
06:54 45.2 °F 43.4 °F 29.53 in WNW 5 mph 10 mph 90% 0.09 in 0 W/m2
06:59 45.1 °F 43.3 °F 29.53 in WNW 5.6 mph 8 mph 90% 0.09 in 0 W/m2
07:04 45.1 °F 43.4 °F 29.54 in WNW 3.6 mph 7 mph 90.4% 0.09 in 0 W/m2
07:09 45 °F 43.3 °F 29.54 in WNW 4.1 mph 7 mph 91% 0.09 in 0 W/m2
07:14 45 °F 43.3 °F 29.54 in WNW 4.8 mph 7 mph 91% 0.09 in 0 W/m2
07:19 45 °F 43.3 °F 29.54 in WNW 4.5 mph 7 mph 91% 0.09 in 0 W/m2
07:24 44.9 °F 43.3 °F 29.54 in WNW 4.4 mph 9 mph 91% 0.08 in 0 W/m2
07:29 44.9 °F 43.2 °F 29.54 in WNW 5.8 mph 10 mph 91% 0.07 in 0 W/m2
07:34 44.8 °F 43.2 °F 29.54 in WNW 5.3 mph 10 mph 91% 0.06 in 0 W/m2
07:39 44.8 °F 43.2 °F 29.54 in WNW 7 mph 10 mph 91% 0.05 in 0 W/m2
07:44 44.8 °F 43.2 °F 29.54 in NW 5.3 mph 9 mph 91% 0.03 in 0 W/m2
07:49 44.9 °F 43.2 °F 29.54 in NW 6.7 mph 13 mph 91% 0.02 in 0 W/m2
07:54 44.9 °F 43.2 °F 29.54 in NW 6.1 mph 11 mph 90.8% 0.02 in 0 W/m2
07:59 45 °F 43.2 °F 29.54 in WNW 6.8 mph 11 mph 90% 0.01 in 0 W/m2
08:04 44.9 °F 43.1 °F 29.54 in WNW 6.1 mph 11 mph 90% 0.01 in 5 W/m2
08:09 44.8 °F 43 °F 29.55 in NW 5.1 mph 11 mph 90% 0.01 in 7 W/m2
08:14 44.8 °F 42.8 °F 29.55 in NW 5.2 mph 10 mph 89.6% 0.01 in 7 W/m2
08:19 44.8 °F 42.6 °F 29.55 in WNW 7.2 mph 13 mph 89% 0.01 in 9 W/m2
08:24 44.8 °F 42.6 °F 29.55 in WNW 4.5 mph 12 mph 89% 0.00 in 9 W/m2
08:29 44.8 °F 42.6 °F 29.55 in NW 7 mph 13 mph 89% 0.00 in 19 W/m2
08:34 45 °F 42.5 °F 29.55 in NW 7 mph 10 mph 88.2% 0.00 in 25 W/m2
08:39 45 °F 42.4 °F 29.55 in WNW 7.4 mph 14 mph 88% 0.00 in 26 W/m2
08:44 45.1 °F 42.4 °F 29.55 in WNW 6.6 mph 11 mph 87.2% 0.00 in 21 W/m2
08:49 45.1 °F 42.4 °F 29.55 in WNW 5.8 mph 12 mph 86.8% 0.00 in 32 W/m2
08:54 45.3 °F 42.3 °F 29.55 in WNW 5.9 mph 11 mph 86% 0.00 in 37 W/m2
08:59 45.3 °F 42.3 °F 29.56 in NW 4.9 mph 11 mph 86% 0.00 in 26 W/m2
09:04 45.2 °F 42.2 °F 29.56 in WNW 6.6 mph 11 mph 86% 0.00 in 53 W/m2
09:09 45.2 °F 41.9 °F 29.56 in WNW 8 mph 12 mph 85.2% 0.00 in 63 W/m2
09:14 45.5 °F 42.1 °F 29.56 in WNW 6 mph 14 mph 85% 0.00 in 53 W/m2
09:19 45.6 °F 42.2 °F 29.56 in WNW 8.8 mph 14 mph 85% 0.00 in 49 W/m2
09:24 45.4 °F 42 °F 29.56 in WNW 6.1 mph 11 mph 85% 0.00 in 63 W/m2
09:29 45.5 °F 42.1 °F 29.56 in WNW 8.2 mph 12 mph 85% 0.00 in 56 W/m2
09:34 45.7 °F 42.3 °F 29.56 in WNW 10 mph 16 mph 85% 0.00 in 44 W/m2
09:39 45.8 °F 42.3 °F 29.56 in WNW 10.2 mph 16 mph 85% 0.00 in 51 W/m2
09:44 45.9 °F 42.4 °F 29.56 in WNW 8.2 mph 19 mph 84.8% 0.00 in 62 W/m2
09:49 46 °F 42.4 °F 29.56 in WNW 8.5 mph 17 mph 84% 0.00 in 70 W/m2
09:54 46 °F 42.4 °F 29.55 in WNW 8 mph 16 mph 84% 0.00 in 83 W/m2
09:59 46.2 °F 42.6 °F 29.56 in WNW 8 mph 13 mph 84% 0.00 in 95 W/m2
10:04 46.2 °F 42.4 °F 29.56 in NW 8.8 mph 18 mph 83.4% 0.00 in 97 W/m2
10:09 46.2 °F 42.5 °F 29.56 in WNW 7.3 mph 14 mph 83.4% 0.00 in 120 W/m2
10:14 46.2 °F 42.6 °F 29.56 in WNW 9.1 mph 15 mph 84% 0.00 in 116 W/m2
10:19 46.2 °F 42.6 °F 29.56 in WNW 9 mph 14 mph 84% 0.00 in 214 W/m2
10:24 46.3 °F 42.7 °F 29.56 in WNW 9.2 mph 14 mph 84% 0.00 in 199 W/m2
10:29 46.6 °F 42.6 °F 29.56 in WNW 10.8 mph 16 mph 83.2% 0.00 in 185 W/m2
10:34 46.6 °F 42.6 °F 29.56 in WNW 8.6 mph 15 mph 83.2% 0.00 in 141 W/m2
10:39 46.6 °F 42.8 °F 29.56 in WNW 9 mph 18 mph 84% 0.00 in 167 W/m2
10:44 46.7 °F 42.9 °F 29.56 in NW 9 mph 18 mph 84% 0.00 in 190 W/m2
10:49 46.6 °F 42.8 °F 29.56 in WNW 9.4 mph 20 mph 84% 0.00 in 276 W/m2
10:54 46.8 °F 43 °F 29.56 in WNW 7.1 mph 18 mph 84% 0.00 in 278 W/m2
10:59 46.8 °F 43 °F 29.56 in WNW 13 mph 20 mph 84% 0.00 in 132 W/m2
11:04 46.6 °F 42.8 °F 29.56 in WNW 10.6 mph 20 mph 84% 0.00 in 107 W/m2
11:09 46.2 °F 42.6 °F 29.56 in WNW 8.6 mph 15 mph 84% 0.00 in 109 W/m2
11:14 46.2 °F 42.6 °F 29.56 in WNW 7.3 mph 15 mph 84% 0.00 in 202 W/m2
11:19 46.5 °F 42.8 °F 29.56 in NW 11.6 mph 20 mph 84% 0.00 in 232 W/m2
11:24 46.6 °F 42.8 °F 29.56 in WNW 8.2 mph 18 mph 84% 0.00 in 223 W/m2
11:29 46.7 °F 42.9 °F 29.56 in WNW 8.8 mph 18 mph 84% 0.00 in 223 W/m2
11:34 46.8 °F 43.1 °F 29.56 in WNW 8.4 mph 18 mph 84% 0.00 in 343 W/m2
11:39 47.3 °F 43.5 °F 29.56 in WNW 6.5 mph 14 mph 84% 0.00 in 294 W/m2
11:44 47.4 °F 43.5 °F 29.56 in WNW 8.3 mph 14 mph 83.4% 0.00 in 288 W/m2
11:49 47.5 °F 43.3 °F 29.55 in WNW 11.1 mph 21 mph 82.4% 0.00 in 278 W/m2
11:54 47.7 °F 43.1 °F 29.56 in NW 8.4 mph 18 mph 81.2% 0.00 in 121 W/m2
11:59 47.5 °F 42.8 °F 29.56 in WNW 10.3 mph 16 mph 81% 0.00 in 84 W/m2
12:04 47.2 °F 42.5 °F 29.56 in WNW 11.5 mph 22 mph 81% 0.00 in 88 W/m2
12:09 47.1 °F 42.4 °F 29.56 in WNW 8.4 mph 22 mph 81% 0.00 in 127 W/m2
12:14 47.1 °F 42.4 °F 29.55 in WNW 9.4 mph 18 mph 81% 0.00 in 174 W/m2
12:19 47.2 °F 42.5 °F 29.56 in NW 9.3 mph 18 mph 81% 0.00 in 153 W/m2
12:24 47.2 °F 42.6 °F 29.55 in WNW 9 mph 19 mph 81.2% 0.00 in 97 W/m2
12:29 46.8 °F 42.5 °F 29.55 in NW 11 mph 17 mph 82% 0.00 in 148 W/m2
12:34 46.9 °F 42.6 °F 29.55 in NW 8.8 mph 22 mph 82% 0.00 in 151 W/m2
12:39 47 °F 42.5 °F 29.55 in NW 8.2 mph 20 mph 81.4% 0.00 in 172 W/m2
12:44 47.1 °F 42.4 °F 29.55 in WNW 6 mph 14 mph 81% 0.00 in 158 W/m2
12:49 47.1 °F 42.2 °F 29.55 in NW 8.6 mph 22 mph 80.2% 0.00 in 139 W/m2
12:54 47.1 °F 42.1 °F 29.55 in WNW 9.4 mph 18 mph 80% 0.00 in 142 W/m2
12:59 47.4 °F 42.3 °F 29.55 in WNW 10.2 mph 18 mph 80% 0.00 in 294 W/m2
13:04 47.5 °F 42.4 °F 29.55 in WNW 8.5 mph 20 mph 80% 0.00 in 206 W/m2
13:09 47.5 °F 42.4 °F 29.55 in WNW 9.6 mph 17 mph 80% 0.00 in 74 W/m2
13:14 47.3 °F 42.3 °F 29.55 in WNW 7.6 mph 17 mph 80% 0.00 in 58 W/m2
13:19 47.1 °F 42.3 °F 29.56 in NW 6.1 mph 13 mph 80.8% 0.00 in 69 W/m2
13:24 47 °F 42.4 °F 29.55 in WNW 10.2 mph 18 mph 81% 0.00 in 83 W/m2
13:29 46.9 °F 42.3 °F 29.56 in NW 9 mph 18 mph 81% 0.00 in 53 W/m2
13:34 46.9 °F 42.3 °F 29.55 in WNW 7.4 mph 16 mph 81% 0.00 in 114 W/m2
13:39 46.9 °F 42.3 °F 29.55 in WNW 8.8 mph 17 mph 81% 0.00 in 120 W/m2
13:44 46.9 °F 42.3 °F 29.55 in NW 10.8 mph 17 mph 81% 0.00 in 72 W/m2
13:49 46.8 °F 42.1 °F 29.55 in WNW 10 mph 17 mph 81% 0.00 in 84 W/m2
13:54 46.8 °F 42.1 °F 29.55 in NW 5.2 mph 13 mph 81% 0.00 in 105 W/m2
13:59 46.8 °F 42.1 °F 29.55 in WNW 7.4 mph 14 mph 81% 0.00 in 90 W/m2
14:04 46.6 °F 41.9 °F 29.55 in WNW 11.3 mph 18 mph 81% 0.00 in 86 W/m2
14:09 46.6 °F 41.9 °F 29.55 in WNW 8.2 mph 17 mph 81% 0.00 in 153 W/m2
14:14 46.6 °F 41.9 °F 29.55 in WNW 8.2 mph 17 mph 81% 0.00 in 72 W/m2
14:19 46.4 °F 41.7 °F 29.55 in WNW 8 mph 16 mph 81% 0.00 in 49 W/m2
14:24 46.2 °F 41.5 °F 29.55 in WNW 7 mph 13 mph 81% 0.00 in 62 W/m2
14:29 46.2 °F 41.5 °F 29.55 in WNW 9.6 mph 16 mph 80.8% 0.00 in 132 W/m2
14:34 46.6 °F 41.7 °F 29.55 in WNW 7.1 mph 15 mph 80.4% 0.00 in 91 W/m2
14:39 46.6 °F 41.5 °F 29.56 in WNW 8.8 mph 15 mph 80% 0.00 in 151 W/m2
14:44 46.5 °F 41.5 °F 29.56 in WNW 6 mph 16 mph 80% 0.00 in 70 W/m2
14:49 46.3 °F 41.4 °F 29.56 in WNW 7.2 mph 12 mph 80% 0.00 in 95 W/m2
14:54 46.2 °F 41.4 °F 29.56 in WNW 7 mph 13 mph 80% 0.00 in 72 W/m2
14:59 46.2 °F 41.5 °F 29.56 in WNW 5.2 mph 12 mph 81% 0.00 in 56 W/m2
15:04 46.2 °F 41.5 °F 29.56 in WNW 5.9 mph 14 mph 80.6% 0.00 in 33 W/m2
15:09 46.1 °F 41.5 °F 29.56 in WNW 5.2 mph 11 mph 81% 0.00 in 28 W/m2
15:14 46 °F 41.4 °F 29.56 in WNW 8.6 mph 15 mph 81% 0.00 in 19 W/m2
15:19 45.9 °F 41.4 °F 29.56 in WNW 7.3 mph 14 mph 81.4% 0.00 in 25 W/m2
15:24 45.8 °F 41.4 °F 29.57 in WNW 4.5 mph 10 mph 82% 0.00 in 25 W/m2
15:29 45.7 °F 41.4 °F 29.57 in WNW 6.2 mph 11 mph 82% 0.00 in 16 W/m2
15:34 45.6 °F 41.6 °F 29.57 in WNW 6.8 mph 10 mph 83% 0.00 in 11 W/m2
15:39 45.5 °F 41.5 °F 29.57 in WNW 7.6 mph 16 mph 83% 0.00 in 14 W/m2
15:44 45.4 °F 41.4 °F 29.56 in WNW 7.8 mph 17 mph 83% 0.00 in 14 W/m2
15:49 45.4 °F 41.5 °F 29.56 in WNW 4.1 mph 12 mph 83% 0.00 in 18 W/m2
15:54 45.3 °F 41.4 °F 29.56 in WNW 6.9 mph 15 mph 83% 0.00 in 19 W/m2
15:59 45.3 °F 41.4 °F 29.56 in WNW 6.5 mph 11 mph 83% 0.00 in 11 W/m2
16:04 45.3 °F 41.4 °F 29.56 in WNW 6.4 mph 14 mph 83% 0.00 in 5 W/m2
16:09 45.1 °F 41.2 °F 29.56 in WNW 7 mph 13 mph 83% 0.00 in 0 W/m2
16:14 45.1 °F 41.2 °F 29.57 in WNW 5.6 mph 9 mph 83.2% 0.00 in 0 W/m2
16:19 45 °F 41.3 °F 29.56 in WNW 6.7 mph 11 mph 84% 0.00 in 0 W/m2
16:24 44.8 °F 41.2 °F 29.56 in WNW 8.2 mph 12 mph 84% 0.00 in 0 W/m2
16:29 44.8 °F 41.2 °F 29.56 in NW 6.6 mph 11 mph 84% 0.00 in 0 W/m2
16:34 44.7 °F 41.1 °F 29.56 in WNW 5.8 mph 10 mph 84% 0.00 in 0 W/m2
16:39 44.6 °F 41 °F 29.57 in WNW 6.4 mph 13 mph 84% 0.00 in 0 W/m2
16:44 44.8 °F 41.2 °F 29.57 in NW 4.2 mph 10 mph 84% 0.00 in 0 W/m2
16:49 44.8 °F 41.2 °F 29.57 in WNW 6.6 mph 10 mph 84% 0.00 in 0 W/m2
16:54 44.8 °F 41 °F 29.58 in NW 4.3 mph 9 mph 83.4% 0.00 in 0 W/m2
16:59 44.9 °F 41.1 °F 29.58 in WNW 5.4 mph 8 mph 83.6% 0.00 in 0 W/m2
17:04 44.8 °F 41.2 °F 29.58 in NW 3.8 mph 8 mph 84% 0.01 in 0 W/m2
17:09 44.5 °F 41 °F 29.59 in NW 3.3 mph 8 mph 84.4% 0.02 in 0 W/m2
17:14 44.2 °F 40.8 °F 29.60 in NW 3.7 mph 10 mph 85% 0.02 in 0 W/m2
17:19 44.1 °F 41 °F 29.60 in NW 4.4 mph 10 mph 86% 0.04 in 0 W/m2
17:24 43.9 °F 41.1 °F 29.61 in NNW 5.4 mph 11 mph 86.8% 0.05 in 0 W/m2
17:29 43.6 °F 40.9 °F 29.62 in NNW 6.9 mph 13 mph 87% 0.05 in 0 W/m2
17:34 43.3 °F 40.9 °F 29.62 in North 5.4 mph 12 mph 87.8% 0.06 in 0 W/m2
17:39 43.2 °F 40.8 °F 29.63 in NNE 7.7 mph 12 mph 88% 0.06 in 0 W/m2
17:44 43.1 °F 40.7 °F 29.63 in NNE 5.8 mph 13 mph 88% 0.06 in 0 W/m2
17:49 42.9 °F 40.6 °F 29.64 in NNE 5.6 mph 13 mph 88% 0.06 in 0 W/m2
17:54 42.8 °F 40.5 °F 29.65 in NNE 4.4 mph 11 mph 88.4% 0.06 in 0 W/m2
17:59 42.6 °F 40.5 °F 29.65 in NNE 10.6 mph 17 mph 89% 0.06 in 0 W/m2
18:04 42.6 °F 40.3 °F 29.66 in NNE 9.4 mph 20 mph 88% 0.06 in 0 W/m2
18:09 42.6 °F 40.3 °F 29.66 in NNE 8.6 mph 22 mph 88% 0.05 in 0 W/m2
18:14 42.4 °F 40.1 °F 29.67 in NNE 5 mph 11 mph 88% 0.04 in 0 W/m2
18:19 42.4 °F 40.1 °F 29.67 in NNE 4.9 mph 13 mph 88% 0.03 in 0 W/m2
18:24 42.4 °F 40.1 °F 29.68 in North 5.9 mph 11 mph 88% 0.02 in 0 W/m2
18:29 42.4 °F 40 °F 29.68 in North 6.4 mph 13 mph 88% 0.01 in 0 W/m2
18:34 42.3 °F 40 °F 29.69 in North 5 mph 14 mph 88% 0.00 in 0 W/m2
18:39 42.3 °F 40 °F 29.70 in NNE 3.6 mph 11 mph 88% 0.00 in 0 W/m2
18:44 42.4 °F 40.1 °F 29.70 in NE 5.8 mph 11 mph 88% 0.00 in 0 W/m2
18:49 42.3 °F 39.9 °F 29.70 in NNE 5.9 mph 9 mph 88% 0.00 in 0 W/m2
18:54 42.2 °F 39.6 °F 29.70 in North 5.7 mph 11 mph 87.4% 0.00 in 0 W/m2
18:59 42.1 °F 39.4 °F 29.71 in NNW 5.4 mph 10 mph 87% 0.00 in 0 W/m2
19:04 42 °F 39.4 °F 29.72 in NNW 4.1 mph 8 mph 87.2% 0.00 in 0 W/m2
19:09 41.9 °F 39.6 °F 29.72 in North 4.1 mph 8 mph 88% 0.00 in 0 W/m2
19:14 41.7 °F 39.4 °F 29.73 in North 5.1 mph 11 mph 88% 0.00 in 0 W/m2
19:19 41.9 °F 39.2 °F 29.73 in NNE 2.4 mph 11 mph 87.2% 0.00 in 0 W/m2
19:24 42 °F 39.3 °F 29.74 in NNW 3.4 mph 9 mph 87% 0.00 in 0 W/m2
19:29 41.9 °F 39.2 °F 29.74 in NNW 3.5 mph 8 mph 87% 0.00 in 0 W/m2
19:34 41.9 °F 39.2 °F 29.74 in North 4.8 mph 9 mph 87% 0.00 in 0 W/m2
19:39 41.7 °F 39 °F 29.74 in North 4.5 mph 10 mph 87% 0.00 in 0 W/m2
19:44 41.6 °F 38.9 °F 29.75 in North 5.6 mph 15 mph 87% 0.00 in 0 W/m2
19:49 41.5 °F 38.5 °F 29.75 in North 4.6 mph 11 mph 86% 0.00 in 0 W/m2
19:54 41.4 °F 38.4 °F 29.76 in NNW 3.4 mph 9 mph 86% 0.00 in 0 W/m2
19:59 41.4 °F 38.3 °F 29.76 in NNW 2.1 mph 5 mph 86% 0.00 in 0 W/m2
20:04 41.1 °F 38 °F 29.76 in NNW 3.5 mph 7 mph 86% 0.00 in 0 W/m2
20:09 40.7 °F 37.7 °F 29.77 in NNW 3.5 mph 7 mph 86% 0.00 in 0 W/m2
20:14 40.6 °F 37.6 °F 29.77 in NNW 2.9 mph 7 mph 86% 0.00 in 0 W/m2
20:19 40.5 °F 37.6 °F 29.77 in NNW 2.9 mph 7 mph 86% 0.00 in 0 W/m2
20:24 40.3 °F 37.4 °F 29.77 in North 3.2 mph 12 mph 86% 0.00 in 0 W/m2
20:29 40.1 °F 37.2 °F 29.78 in NNW 6.3 mph 12 mph 86% 0.00 in 0 W/m2
20:34 39.9 °F 37 °F 29.78 in NNW 3.9 mph 9 mph 86% 0.00 in 0 W/m2
20:39 39.8 °F 36.9 °F 29.78 in NNW 2.5 mph 7 mph 86% 0.00 in 0 W/m2
20:44 39.7 °F 36.9 °F 29.79 in NNW 2.2 mph 6 mph 86.2% 0.00 in 0 W/m2
20:49 39.7 °F 37 °F 29.79 in NNW 1 mph 5 mph 87% 0.00 in 0 W/m2
20:54 39.5 °F 36.7 °F 29.79 in NNW 1.6 mph 7 mph 86.4% 0.00 in 0 W/m2
20:59 39.4 °F 36.5 °F 29.80 in NNW 1.5 mph 4 mph 86% 0.00 in 0 W/m2
21:04 39.4 °F 36.5 °F 29.80 in Calm   3 mph 86% 0.00 in 0 W/m2
21:09 39.1 °F 36.2 °F 29.80 in NNW 0.2 mph 3 mph 86% 0.00 in 0 W/m2
21:14 38.9 °F 35.9 °F 29.80 in NNW 0.2 mph 3 mph 85.6% 0.00 in 0 W/m2
21:19 38.8 °F 35.6 °F 29.80 in Calm   4 mph 85% 0.00 in 0 W/m2
21:24 38.6 °F 35.3 °F 29.81 in NNW 0.4 mph 3 mph 85% 0.00 in 0 W/m2
21:29 38.4 °F 35.2 °F 29.81 in NNW 0.6 mph 9 mph 85% 0.00 in 0 W/m2
21:34 38.2 °F 35 °F 29.81 in Calm   1 mph 85% 0.00 in 0 W/m2
21:39 38.1 °F 34.9 °F 29.81 in Calm   5 mph 85% 0.00 in 0 W/m2
21:44 37.9 °F 34.7 °F 29.81 in NNW 0.4 mph 4 mph 85% 0.00 in 0 W/m2
21:49 37.9 °F 34.6 °F 29.82 in NNW 1.2 mph 6 mph 85% 0.00 in 0 W/m2
21:54 37.8 °F 34.4 °F 29.82 in NNW 1.4 mph 7 mph 84.6% 0.00 in 0 W/m2
21:59 37.8 °F 34.2 °F 29.82 in NNW 3.6 mph 8 mph 84% 0.00 in 0 W/m2
22:04 37.8 °F 34.2 °F 29.82 in North 0.8 mph 8 mph 84% 0.00 in 0 W/m2
22:09 37.8 °F 34.2 °F 29.82 in North 2.4 mph 7 mph 84% 0.00 in 0 W/m2
22:14 37.7 °F 33.9 °F 29.82 in North 1.6 mph 7 mph 83% 0.00 in 0 W/m2
22:19 37.6 °F 33.8 °F 29.82 in North 1.8 mph 7 mph 83% 0.00 in 0 W/m2
22:24 37.3 °F 33.5 °F 29.83 in North 1.4 mph 8 mph 83% 0.00 in 0 W/m2
22:29 37.2 °F 33.4 °F 29.83 in North 3.3 mph 9 mph 83% 0.00 in 0 W/m2
22:34 37.2 °F 33.4 °F 29.83 in North 0.8 mph 8 mph 83% 0.00 in 0 W/m2
22:39 37 °F 33.1 °F 29.83 in North 1.8 mph 6 mph 82.4% 0.00 in 0 W/m2
22:44 37 °F 32.9 °F 29.83 in North 1 mph 7 mph 82% 0.00 in 0 W/m2
22:49 37 °F 32.8 °F 29.83 in Calm   4 mph 82% 0.00 in 0 W/m2
22:54 36.8 °F 32.6 °F 29.84 in North 0.6 mph 6 mph 82% 0.00 in 0 W/m2
22:59 36.7 °F 32.5 °F 29.84 in Calm   6 mph 82% 0.00 in 0 W/m2
23:04 36.5 °F 32.4 °F 29.84 in North 0.2 mph 3 mph 82% 0.00 in 0 W/m2
23:09 36.3 °F 32.2 °F 29.84 in North 0.6 mph 5 mph 82% 0.00 in 0 W/m2
23:14 36.1 °F 32 °F 29.85 in North 0.4 mph 5 mph 82% 0.00 in 0 W/m2
23:19 36 °F 31.9 °F 29.85 in Calm   2 mph 82% 0.00 in 0 W/m2
23:24 36 °F 31.8 °F 29.85 in North 1.4 mph 7 mph 82% 0.00 in 0 W/m2
23:29 35.8 °F 31.9 °F 29.85 in North 0.2 mph 7 mph 82.8% 0.00 in 0 W/m2
23:34 35.8 °F 31.6 °F 29.85 in Calm   6 mph 82% 0.00 in 0 W/m2
23:39 35.8 °F 31.6 °F 29.85 in North 0.8 mph 5 mph 82% 0.00 in 0 W/m2
23:44 35.7 °F 31.5 °F 29.85 in North 0.8 mph 4 mph 82% 0.00 in 0 W/m2
23:48 35.5 °F 31.4 °F 29.85 in Calm   2 mph 82% 0.00 in 0 W/m2
23:54 35.4 °F 31.3 °F 29.86 in Calm   1 mph 82% 0.00 in 0 W/m2
23:59 35.2 °F 31.1 °F 29.86 in Calm     82% 0.00 in 0 W/m2
Bath Spa Weather
Compliments of Weather Underground - 2 mb